Time;durP1;ratioP1;P1;durP2;ratioP2;P2;SDS_P1;SDS_P2;PMS_P1;PMS_P2;Temp;Humidity;BMP_temperature;BMP_pressure;BME280_temperature;BME280_humidity;BME280_pressure;Samples;Min_cycle;Max_cycle;Signal;HPM_P1;HPM_P2
2022/09/23 00:00:09;;;;;;;;;;;;;;;6.43;84.53;99512.56;8286315;28;20241;-77
2022/09/23 00:04:10;;;;;;;;;;;;;;;6.43;84.81;99505.69;8286636;28;19926;-77
2022/09/23 00:08:12;;;;;;;;;;;;;;;6.41;84.88;99509.09;8284667;28;19987;-77
2022/09/23 00:12:13;;;;;;;;;;;;;;;6.39;85.00;99509.09;8287901;28;20027;-77
2022/09/23 00:16:17;;;;;;;;;;;;;;;6.37;84.82;99521.09;8285502;28;19925;-77
2022/09/23 00:20:18;;;;;;;;;;;;;;;6.34;85.22;99515.91;8285838;28;19980;-76
2022/09/23 00:24:20;;;;;;;;;;;;;;;6.31;84.74;99516.72;8286189;28;19929;-76
2022/09/23 00:28:21;;;;;;;;;;;;;;;6.28;84.81;99520.94;8285164;28;19933;-76
2022/09/23 00:32:29;;;;;;;;;;;;;;;6.21;85.12;99513.97;8306022;28;19935;-76
2022/09/23 00:36:31;;;;;;;;;;;;;;;6.15;85.54;99503.59;8288964;28;19929;-76
2022/09/23 00:40:32;;;;;;;;;;;;;;;6.05;85.44;99506.00;8311135;28;19955;-76
2022/09/23 00:44:42;;;;;;;;;;;;;;;6.05;85.18;99500.84;8292986;28;19926;-75
2022/09/23 00:48:54;;;;;;;;;;;;;;;6.02;85.12;99505.09;8290571;28;20297;-76
2022/09/23 00:52:57;;;;;;;;;;;;;;;5.99;85.15;99498.19;8289494;28;19948;-76
2022/09/23 00:56:59;;;;;;;;;;;;;;;5.91;85.49;99497.19;8293903;28;20379;-76
2022/09/23 01:01:04;;;;;;;;;;;;;;;5.85;85.90;99493.63;8303036;28;19925;-76
2022/09/23 01:05:11;;;;;;;;;;;;;;;5.87;85.83;99489.34;8310999;28;19936;-76
2022/09/23 01:09:20;;;;;;;;;;;;;;;5.86;86.24;99490.19;8279039;28;19937;-76
2022/09/23 01:13:35;;;;;;;;;;;;;;;5.90;86.32;99487.72;8291856;28;19933;-76
2022/09/23 01:17:56;;;;;;;;;;;;;;;5.90;86.70;99473.97;8289924;28;20273;-76
2022/09/23 01:22:08;;;;;;;;;;;;;;;5.91;86.52;99475.72;8301663;28;19925;-76
2022/09/23 01:26:33;;;;;;;;;;;;;;;5.91;86.34;99471.41;8304225;28;19925;-76
2022/09/23 01:30:44;;;;;;;;;;;;;;;5.89;86.30;99469.63;8295503;28;19936;-76
2022/09/23 01:34:49;;;;;;;;;;;;;;;5.88;85.91;99467.91;8306954;28;19929;-76
2022/09/23 01:38:50;;;;;;;;;;;;;;;5.87;85.94;99467.03;8287297;28;20393;-76
2022/09/23 01:42:55;;;;;;;;;;;;;;;5.85;86.16;99465.28;8289122;28;19953;-76
2022/09/23 01:46:59;;;;;;;;;;;;;;;5.83;85.81;99469.53;8291318;28;19921;-76
2022/09/23 01:51:04;;;;;;;;;;;;;;;5.82;86.07;99463.53;8294742;28;20343;-76
2022/09/23 01:55:11;;;;;;;;;;;;;;;5.81;86.12;99459.22;8307674;28;20598;-76
2022/09/23 01:59:13;;;;;;;;;;;;;;;5.79;85.91;99454.88;8291762;28;20019;-76
2022/09/23 02:03:17;;;;;;;;;;;;;;;5.74;86.18;99454.78;8306793;28;19932;-76
2022/09/23 02:07:22;;;;;;;;;;;;;;;5.70;85.84;99453.03;8294177;28;19931;-76
2022/09/23 02:11:35;;;;;;;;;;;;;;;5.67;86.56;99464.16;8308852;28;19922;-76
2022/09/23 02:15:40;;;;;;;;;;;;;;;5.67;85.98;99456.41;8293975;28;20318;-76
2022/09/23 02:19:46;;;;;;;;;;;;;;;5.65;86.54;99457.25;8295887;28;19930;-76
2022/09/23 02:23:50;;;;;;;;;;;;;;;5.65;86.26;99449.50;8284628;28;19925;-76
2022/09/23 02:28:00;;;;;;;;;;;;;;;5.52;86.41;99448.44;8301862;28;20378;-76
2022/09/23 02:32:18;;;;;;;;;;;;;;;5.50;86.50;99449.25;8289564;28;19999;-76
2022/09/23 02:36:25;;;;;;;;;;;;;;;5.45;86.13;99450.06;8296180;28;20254;-76
2022/09/23 02:40:33;;;;;;;;;;;;;;;5.44;86.44;99456.03;8278346;28;19925;-76
2022/09/23 02:44:34;;;;;;;;;;;;;;;5.41;86.75;99465.44;8310724;28;20610;-76
2022/09/23 02:48:45;;;;;;;;;;;;;;;5.35;86.35;99463.59;8296047;28;19925;-76
2022/09/23 02:52:53;;;;;;;;;;;;;;;5.30;86.47;99457.50;8291486;28;19983;-75
2022/09/23 02:56:56;;;;;;;;;;;;;;;5.28;86.32;99459.19;8307375;28;19925;-76
2022/09/23 03:00:57;;;;;;;;;;;;;;;5.29;86.69;99454.91;8273356;28;19975;-76
2022/09/23 03:05:04;;;;;;;;;;;;;;;5.29;86.33;99452.34;8288455;28;19925;-75
2022/09/23 03:09:09;;;;;;;;;;;;;;;5.30;86.41;99456.63;8291020;28;20424;-76
2022/09/23 03:13:22;;;;;;;;;;;;;;;5.26;86.07;99453.16;8288613;28;19952;-75
2022/09/23 03:17:36;;;;;;;;;;;;;;;5.20;86.64;99442.72;8288341;28;19925;-75
2022/09/23 03:21:42;;;;;;;;;;;;;;;5.17;86.68;99455.53;8284724;28;19979;-75
2022/09/23 03:25:46;;;;;;;;;;;;;;;5.18;86.71;99452.13;8289011;28;20873;-75
2022/09/23 03:29:49;;;;;;;;;;;;;;;5.05;85.91;99450.19;8301887;28;19925;-75
2022/09/23 03:33:53;;;;;;;;;;;;;;;5.00;86.34;99441.50;8289910;28;19926;-75
2022/09/23 03:38:16;;;;;;;;;;;;;;;5.00;86.07;99451.78;8301434;28;20258;-74
2022/09/23 03:42:28;;;;;;;;;;;;;;;4.98;86.32;99438.03;8291794;28;19928;-74
2022/09/23 03:46:34;;;;;;;;;;;;;;;4.93;86.17;99437.97;8292082;28;20453;-74
2022/09/23 03:50:35;;;;;;;;;;;;;;;4.84;86.42;99437.78;8302228;28;20599;-74
2022/09/23 03:54:37;;;;;;;;;;;;;;;4.80;86.27;99436.84;8312971;28;19929;-75
2022/09/23 03:58:38;;;;;;;;;;;;;;;4.76;86.47;99432.50;8287428;28;20346;-75
2022/09/23 04:02:40;;;;;;;;;;;;;;;4.74;86.76;99429.03;8307341;28;19975;-75
2022/09/23 04:06:41;;;;;;;;;;;;;;;4.74;86.95;99420.44;8273309;28;19929;-75
2022/09/23 04:10:42;;;;;;;;;;;;;;;4.70;86.81;99424.66;8285970;28;20582;-75
2022/09/23 04:14:44;;;;;;;;;;;;;;;4.70;86.93;99422.09;8288404;28;19929;-75
2022/09/23 04:18:45;;;;;;;;;;;;;;;4.70;87.13;99426.38;8300149;28;20409;-75
2022/09/23 04:22:47;;;;;;;;;;;;;;;4.68;87.01;99428.91;8289048;28;19987;-75
2022/09/23 04:26:52;;;;;;;;;;;;;;;4.64;86.88;99419.38;8279558;28;20325;-75
2022/09/23 04:30:54;;;;;;;;;;;;;;;4.61;87.00;99424.47;8286493;28;19944;-75
2022/09/23 04:34:56;;;;;;;;;;;;;;;4.66;87.08;99421.97;8302390;28;20544;-75
2022/09/23 04:38:57;;;;;;;;;;;;;;;4.60;86.88;99419.31;8284543;28;19995;-75
2022/09/23 04:42:59;;;;;;;;;;;;;;;4.58;86.64;99418.41;8282874;28;19925;-75
2022/09/23 04:47:00;;;;;;;;;;;;;;;4.54;86.55;99420.91;8302769;28;19987;-75
2022/09/23 04:51:12;;;;;;;;;;;;;;;4.50;86.72;99420.84;8300462;28;20380;-75
2022/09/23 04:55:14;;;;;;;;;;;;;;;4.51;86.98;99427.72;8284150;28;19929;-74
2022/09/23 04:59:15;;;;;;;;;;;;;;;4.50;86.44;99429.41;8285895;28;19930;-76
2022/09/23 05:03:16;;;;;;;;;;;;;;;4.47;86.75;99426.75;8274116;28;19925;-77
2022/09/23 05:07:18;;;;;;;;;;;;;;;4.46;86.96;99422.44;8294163;28;19925;-75
2022/09/23 05:11:20;;;;;;;;;;;;;;;4.44;86.58;99425.84;8282680;28;20300;-74
2022/09/23 05:15:21;;;;;;;;;;;;;;;4.46;87.21;99429.31;8282993;28;19925;-76
2022/09/23 05:19:22;;;;;;;;;;;;;;;4.44;87.05;99423.25;8286844;28;19921;-74
2022/09/23 05:23:24;;;;;;;;;;;;;;;4.34;86.62;99434.22;8288025;28;20064;-77
2022/09/23 05:27:26;;;;;;;;;;;;;;;4.27;87.01;99429.75;8299745;28;19936;-77
2022/09/23 05:31:28;;;;;;;;;;;;;;;4.33;87.27;99427.34;8290301;28;19925;-76
2022/09/23 05:35:30;;;;;;;;;;;;;;;4.36;87.23;99437.69;8305967;28;20024;-76
2022/09/23 05:39:31;;;;;;;;;;;;;;;4.36;86.97;99435.97;8285423;28;19925;-76
2022/09/23 05:43:40;;;;;;;;;;;;;;;4.41;87.01;99434.34;8287079;28;20350;-74
2022/09/23 05:47:42;;;;;;;;;;;;;;;4.44;86.94;99423.25;8286709;28;19992;-74
2022/09/23 05:51:44;;;;;;;;;;;;;;;4.47;87.12;99425.91;8302600;28;19929;-77
2022/09/23 05:55:45;;;;;;;;;;;;;;;4.43;87.10;99429.25;8299402;28;19991;-76
2022/09/23 05:59:47;;;;;;;;;;;;;;;4.46;86.89;99435.31;8284722;28;19925;-77
2022/09/23 06:03:48;;;;;;;;;;;;;;;4.52;87.22;99432.88;8289301;28;20621;-76
2022/09/23 06:07:50;;;;;;;;;;;;;;;4.63;87.52;99435.66;8270160;28;19925;-76
2022/09/23 06:11:51;;;;;;;;;;;;;;;4.71;87.30;99439.25;8283886;28;20401;-77
2022/09/23 06:15:56;;;;;;;;;;;;;;;4.70;87.10;99437.53;8284642;28;19975;-76
2022/09/23 06:19:57;;;;;;;;;;;;;;;4.77;87.52;99441.06;8281432;28;20282;-77
2022/09/23 06:23:59;;;;;;;;;;;;;;;4.95;87.88;99441.41;8302012;28;19925;-77
2022/09/23 06:28:01;;;;;;;;;;;;;;;5.15;88.31;99444.34;8301090;28;19987;-77
2022/09/23 06:32:03;;;;;;;;;;;;;;;5.45;87.46;99442.31;8270075;28;19925;-77
2022/09/23 06:36:06;;;;;;;;;;;;;;;5.72;87.34;99439.31;8286877;28;20297;-76
2022/09/23 06:40:07;;;;;;;;;;;;;;;5.94;86.38;99443.16;8288502;28;19937;-77
2022/09/23 06:44:09;;;;;;;;;;;;;;;6.16;85.96;99449.47;8284854;28;20617;-76
2022/09/23 06:48:10;;;;;;;;;;;;;;;6.34;84.67;99443.69;8290412;28;19968;-76
2022/09/23 06:52:20;;;;;;;;;;;;;;;6.52;83.91;99451.69;8287653;28;20461;-74
2022/09/23 06:56:22;;;;;;;;;;;;;;;6.62;83.38;99452.63;8285311;28;19987;-74
2022/09/23 07:00:23;;;;;;;;;;;;;;;6.88;83.07;99456.41;8284640;28;19925;-76
2022/09/23 07:04:25;;;;;;;;;;;;;;;7.15;82.59;99457.53;8286395;28;19925;-75
2022/09/23 07:08:30;;;;;;;;;;;;;;;7.44;81.18;99450.94;8283530;28;20393;-75
2022/09/23 07:12:32;;;;;;;;;;;;;;;7.72;80.06;99443.41;8283982;28;20094;-75
2022/09/23 07:16:33;;;;;;;;;;;;;;;8.13;79.20;99447.19;8302354;28;19983;-75
2022/09/23 07:20:35;;;;;;;;;;;;;;;8.50;77.60;99451.72;8298772;28;19925;-75
2022/09/23 07:24:37;;;;;;;;;;;;;;;8.99;75.97;99460.56;8301874;28;20100;-75
2022/09/23 07:28:39;;;;;;;;;;;;;;;9.32;75.43;99460.59;8283718;28;19972;-75
2022/09/23 07:32:40;;;;;;;;;;;;;;;9.65;74.83;99459.78;8294297;28;19925;-75
2022/09/23 07:36:49;;;;;;;;;;;;;;;10.04;73.87;99452.84;8282803;28;19925;-75
2022/09/23 07:40:50;;;;;;;;;;;;;;;10.51;73.13;99454.50;8281623;28;19929;-75
2022/09/23 07:44:54;;;;;;;;;;;;;;;10.85;71.27;99450.06;8281439;28;19929;-75
2022/09/23 07:48:56;;;;;;;;;;;;;;;11.32;70.53;99439.41;8280352;28;20018;-75
2022/09/23 07:52:57;;;;;;;;;;;;;;;11.84;69.58;99440.75;8280976;28;19987;-76
2022/09/23 07:56:59;;;;;;;;;;;;;;;12.23;68.11;99449.94;8284308;28;19921;-75
2022/09/23 08:01:09;;;;;;;;;;;;;;;12.53;67.06;99452.19;8285624;28;19953;-75
2022/09/23 08:05:10;;;;;;;;;;;;;;;12.92;65.12;99456.06;8284957;28;19952;-75
2022/09/23 08:09:11;;;;;;;;;;;;;;;13.27;64.16;99452.16;8290886;28;19925;-76
2022/09/23 08:13:13;;;;;;;;;;;;;;;13.62;63.11;99446.41;8281943;28;19925;-76
2022/09/23 08:17:14;;;;;;;;;;;;;;;13.64;61.63;99442.03;8284660;28;20441;-76
2022/09/23 08:21:20;;;;;;;;;;;;;;;13.78;61.13;99450.50;8301014;28;19983;-75
2022/09/23 08:25:28;;;;;;;;;;;;;;;14.11;61.07;99440.38;8279202;28;20307;-76
2022/09/23 08:29:33;;;;;;;;;;;;;;;14.56;60.72;99448.28;8291691;28;19929;-75
2022/09/23 08:33:35;;;;;;;;;;;;;;;14.48;59.42;99453.63;8276545;28;19926;-74
2022/09/23 08:37:36;;;;;;;;;;;;;;;14.67;58.93;99438.44;8284172;28;20786;-74
2022/09/23 08:41:56;;;;;;;;;;;;;;;14.94;58.46;99434.41;8279824;28;20520;-76
2022/09/23 08:46:01;;;;;;;;;;;;;;;15.23;58.06;99447.69;8280193;28;19925;-76
2022/09/23 08:50:32;;;;;;;;;;;;;;;15.40;57.49;99442.09;8278280;28;19941;-76
2022/09/23 08:54:33;;;;;;;;;;;;;;;15.61;57.16;99436.38;8294919;28;20793;-76
2022/09/23 08:58:42;;;;;;;;;;;;;;;15.75;56.50;99441.28;8300152;28;19964;-76
2022/09/23 09:02:43;;;;;;;;;;;;;;;15.95;54.94;99439.03;8286297;28;19991;-76
2022/09/23 09:07:08;;;;;;;;;;;;;;;16.24;55.48;99442.66;8288466;28;20377;-76
2022/09/23 09:11:38;;;;;;;;;;;;;;;16.44;54.88;99426.38;8300695;28;20594;-76
2022/09/23 09:15:55;;;;;;;;;;;;;;;16.46;52.97;99425.44;8286199;28;19929;-76
2022/09/23 09:20:04;;;;;;;;;;;;;;;16.78;54.71;99423.72;8282388;28;19936;-76
2022/09/23 09:24:15;;;;;;;;;;;;;;;17.01;53.62;99416.00;8302613;28;19929;-76
2022/09/23 09:28:19;;;;;;;;;;;;;;;17.19;53.81;99419.84;8283998;28;19944;-76
2022/09/23 09:32:46;;;;;;;;;;;;;;;17.33;52.67;99412.41;8305443;28;19921;-76
2022/09/23 09:37:04;;;;;;;;;;;;;;;17.42;52.60;99406.88;8303342;28;19925;-76
2022/09/23 09:41:15;;;;;;;;;;;;;;;17.47;52.30;99410.19;8289342;28;20534;-76
2022/09/23 09:45:25;;;;;;;;;;;;;;;17.75;52.16;99411.94;8279606;28;19964;-76
2022/09/23 09:49:32;;;;;;;;;;;;;;;17.87;49.81;99398.41;8297848;28;19960;-77
2022/09/23 09:53:39;;;;;;;;;;;;;;;17.92;50.01;99398.25;8298998;28;20364;-76
2022/09/23 09:57:51;;;;;;;;;;;;;;;18.14;50.98;99395.75;8286958;28;19929;-76
2022/09/23 10:02:31;;;;;;;;;;;;;;;18.11;50.47;99386.19;8299062;28;20604;-76
2022/09/23 10:06:38;;;;;;;;;;;;;;;18.04;49.41;99393.44;8247158;28;19984;-76
2022/09/23 10:10:53;;;;;;;;;;;;;;;18.07;50.09;99393.31;8235495;28;20495;-76
2022/09/23 10:14:56;;;;;;;;;;;;;;;18.20;50.08;99388.50;8250704;28;19929;-76
2022/09/23 10:19:10;;;;;;;;;;;;;;;18.48;50.93;99384.88;8249528;28;20560;-76
2022/09/23 10:23:15;;;;;;;;;;;;;;;18.65;50.12;99377.25;8254855;28;20343;-76
2022/09/23 10:27:24;;;;;;;;;;;;;;;18.75;48.53;99372.50;8247376;28;19926;-77
2022/09/23 10:31:33;;;;;;;;;;;;;;;19.08;49.30;99365.94;8243746;28;20351;-76
2022/09/23 10:35:34;;;;;;;;;;;;;;;19.14;48.28;99367.47;8239289;28;19926;-76
2022/09/23 10:48:53;;;;;;;;;;;;;;;19.45;48.28;99354.78;8254870;28;19949;-76
2022/09/23 10:53:03;;;;;;;;;;;;;;;19.67;46.64;99353.91;8258755;28;19933;-76
2022/09/23 10:57:36;;;;;;;;;;;;;;;20.03;46.62;99346.22;8261708;28;19930;-76
2022/09/23 11:02:00;;;;;;;;;;;;;;;20.29;44.00;99348.56;8256209;28;19929;-76
2022/09/23 11:06:21;;;;;;;;;;;;;;;20.63;44.53;99342.63;8252183;28;19926;-76
2022/09/23 11:10:23;;;;;;;;;;;;;;;20.63;42.78;99336.50;8235357;28;19926;-76
2022/09/23 11:14:50;;;;;;;;;;;;;;;20.19;41.76;99329.66;8258808;28;19936;-76
2022/09/23 11:19:11;;;;;;;;;;;;;;;20.04;41.91;99327.69;8240934;28;20417;-76
2022/09/23 11:23:22;;;;;;;;;;;;;;;20.13;42.87;99321.19;8257633;28;19929;-76
2022/09/23 11:27:24;;;;;;;;;;;;;;;20.05;42.32;99324.13;8250561;28;19970;-76
2022/09/23 11:31:32;;;;;;;;;;;;;;;19.85;42.74;99327.66;8263586;28;19937;-76
2022/09/23 11:35:40;;;;;;;;;;;;;;;19.68;43.95;99316.97;8276417;28;19934;-76
2022/09/23 11:39:45;;;;;;;;;;;;;;;19.79;45.56;99316.53;8283554;28;19972;-76
2022/09/23 11:43:51;;;;;;;;;;;;;;;19.95;44.87;99316.72;8288114;28;20396;-76
2022/09/23 11:48:05;;;;;;;;;;;;;;;20.12;45.32;99301.00;8302276;28;19925;-76
2022/09/23 11:52:20;;;;;;;;;;;;;;;20.29;45.17;99293.19;8284561;28;20436;-77
2022/09/23 11:56:32;;;;;;;;;;;;;;;20.48;44.44;99290.59;8280095;28;20317;-77
2022/09/23 12:00:43;;;;;;;;;;;;;;;20.50;42.57;99272.91;8287066;28;20016;-77
2022/09/23 12:04:59;;;;;;;;;;;;;;;20.67;44.17;99278.25;8297283;28;19926;-76
2022/09/23 12:09:23;;;;;;;;;;;;;;;20.48;41.72;99280.06;8283010;28;19976;-77
2022/09/23 12:14:08;;;;;;;;;;;;;;;20.37;42.77;99279.66;8280315;28;19925;-77
2022/09/23 12:18:34;;;;;;;;;;;;;;;20.39;43.80;99280.44;8285789;28;20345;-76
2022/09/23 12:22:54;;;;;;;;;;;;;;;20.34;42.79;99279.78;8300524;28;19948;-77
2022/09/23 12:26:57;;;;;;;;;;;;;;;20.36;42.89;99270.03;8281777;28;19967;-76
2022/09/23 12:30:59;;;;;;;;;;;;;;;20.36;43.49;99265.59;8283268;28;19928;-76
2022/09/23 12:35:01;;;;;;;;;;;;;;;20.37;43.73;99272.59;8305085;28;19960;-76
2022/09/23 12:39:28;;;;;;;;;;;;;;;20.36;43.93;99268.25;8288785;28;19925;-76
2022/09/23 12:43:48;;;;;;;;;;;;;;;20.33;44.30;99249.94;8295255;28;19988;-77
2022/09/23 12:47:59;;;;;;;;;;;;;;;20.19;42.84;99254.97;8302580;28;19925;-78
2022/09/23 12:52:12;;;;;;;;;;;;;;;20.29;43.98;99255.41;8295593;28;19925;-77
2022/09/23 12:56:37;;;;;;;;;;;;;;;20.37;43.26;99261.19;8289600;28;19933;-77
2022/09/23 13:00:38;;;;;;;;;;;;;;;20.58;43.55;99254.94;8295131;28;19925;-78
2022/09/23 13:09:01;;;;;;;;;;;;;;;21.01;41.90;99248.47;8301454;28;20562;-77
2022/09/23 13:13:05;;;;;;;;;;;;;;;21.05;42.66;99244.72;8296384;28;19928;-77
2022/09/23 13:17:20;;;;;;;;;;;;;;;21.03;41.52;99240.47;8294547;28;20398;-77
2022/09/23 13:21:45;;;;;;;;;;;;;;;20.85;41.36;99238.72;8292421;28;19955;-76
2022/09/23 13:25:47;;;;;;;;;;;;;;;20.55;40.94;99235.75;8283533;28;19941;-77
2022/09/23 13:29:59;;;;;;;;;;;;;;;20.34;42.00;99233.19;8272800;28;20231;-77
2022/09/23 13:34:05;;;;;;;;;;;;;;;20.15;41.91;99233.19;8302992;28;19983;-76
2022/09/23 13:38:23;;;;;;;;;;;;;;;20.06;44.19;99232.72;8288440;28;20278;-77
2022/09/23 13:42:26;;;;;;;;;;;;;;;19.89;44.21;99223.81;8309738;28;19979;-77
2022/09/23 13:46:32;;;;;;;;;;;;;;;19.81;42.17;99227.72;8287417;28;20401;-77
2022/09/23 13:50:37;;;;;;;;;;;;;;;19.71;43.67;99218.50;8291115;28;19933;-77
2022/09/23 13:54:48;;;;;;;;;;;;;;;19.60;43.58;99216.34;8292972;28;20017;-77
2022/09/23 13:58:51;;;;;;;;;;;;;;;19.47;45.49;99220.41;8303355;28;20396;-77
2022/09/23 14:02:52;;;;;;;;;;;;;;;19.37;45.33;99213.81;8288171;28;19925;-77
2022/09/23 14:06:54;;;;;;;;;;;;;;;19.19;45.53;99208.41;8303881;28;19926;-77
2022/09/23 14:10:59;;;;;;;;;;;;;;;19.09;45.45;99195.72;8287081;28;19933;-77
2022/09/23 14:15:00;;;;;;;;;;;;;;;18.98;46.35;99204.06;8303008;28;20286;-77
2022/09/23 14:19:02;;;;;;;;;;;;;;;18.87;47.85;99188.72;8285768;28;19925;-77
2022/09/23 14:23:10;;;;;;;;;;;;;;;18.80;48.86;99187.25;8290412;28;19934;-77
2022/09/23 14:27:14;;;;;;;;;;;;;;;18.74;49.23;99191.91;8286941;28;20001;-77
2022/09/23 14:31:15;;;;;;;;;;;;;;;18.65;50.06;99191.34;8283273;28;19926;-77
2022/09/23 14:35:18;;;;;;;;;;;;;;;18.66;50.54;99194.84;8275750;28;19980;-77
2022/09/23 14:39:20;;;;;;;;;;;;;;;18.69;50.94;99178.97;8280392;28;20032;-77
2022/09/23 14:43:22;;;;;;;;;;;;;;;18.71;50.19;99185.00;8303832;28;19925;-78
2022/09/23 14:47:23;;;;;;;;;;;;;;;18.75;50.15;99181.34;8289738;28;20347;-78
2022/09/23 14:51:52;;;;;;;;;;;;;;;18.74;48.52;99184.88;8298313;28;19991;-78
2022/09/23 14:55:58;;;;;;;;;;;;;;;18.88;50.08;99181.69;8300715;28;19929;-78
2022/09/23 15:00:08;;;;;;;;;;;;;;;19.07;50.29;99179.16;8292162;28;19921;-78
2022/09/23 15:04:13;;;;;;;;;;;;;;;19.21;50.58;99175.00;8295745;28;20301;-78
2022/09/23 15:08:22;;;;;;;;;;;;;;;19.40;51.44;99155.78;8306342;28;19924;-78
2022/09/23 15:12:24;;;;;;;;;;;;;;;19.49;48.51;99147.47;8292421;28;19975;-78
2022/09/23 15:16:26;;;;;;;;;;;;;;;19.48;46.58;99159.78;8269814;28;19931;-78
2022/09/23 15:20:28;;;;;;;;;;;;;;;19.38;47.29;99158.44;8286912;28;20445;-77
2022/09/23 15:24:37;;;;;;;;;;;;;;;19.22;51.26;99162.69;8295824;28;19925;-78
2022/09/23 15:28:39;;;;;;;;;;;;;;;19.07;49.04;99161.56;8291169;28;19948;-78
2022/09/23 15:32:42;;;;;;;;;;;;;;;18.92;47.24;99152.56;8287120;28;19983;-78
2022/09/23 15:36:49;;;;;;;;;;;;;;;18.83;47.51;99163.44;8303629;28;19925;-77
2022/09/23 15:40:51;;;;;;;;;;;;;;;18.68;49.57;99146.56;8289004;28;19932;-78
2022/09/23 15:44:52;;;;;;;;;;;;;;;18.55;50.17;99147.94;8290091;28;20538;-78
2022/09/23 15:48:59;;;;;;;;;;;;;;;18.44;50.33;99142.22;8289265;28;20675;-78
2022/09/23 15:53:00;;;;;;;;;;;;;;;18.30;51.67;99141.94;8303009;28;19931;-77
2022/09/23 15:57:02;;;;;;;;;;;;;;;18.19;52.13;99137.13;8291530;28;19978;-77
2022/09/23 16:01:03;;;;;;;;;;;;;;;18.08;54.12;99128.78;8289933;28;19987;-77
2022/09/23 16:05:06;;;;;;;;;;;;;;;17.88;55.17;99131.31;8288369;28;19929;-77
2022/09/23 16:09:09;;;;;;;;;;;;;;;17.63;56.60;99134.00;8289666;28;19933;-77
2022/09/23 16:13:12;;;;;;;;;;;;;;;17.53;59.17;99125.59;8288234;28;20043;-77
2022/09/23 16:17:19;;;;;;;;;;;;;;;17.38;58.50;99127.00;8307900;28;19948;-77
2022/09/23 16:21:23;;;;;;;;;;;;;;;17.32;58.23;99140.34;8290217;28;19992;-77
2022/09/23 16:25:27;;;;;;;;;;;;;;;17.19;60.16;99139.94;8269863;28;20636;-77
2022/09/23 16:29:35;;;;;;;;;;;;;;;17.07;61.65;99139.53;8275604;28;19925;-77
2022/09/23 16:33:37;;;;;;;;;;;;;;;16.92;62.17;99117.28;8302342;28;19929;-77
2022/09/23 16:37:38;;;;;;;;;;;;;;;16.82;63.13;99111.50;8303747;28;20032;-77
2022/09/23 16:41:42;;;;;;;;;;;;;;;16.66;62.35;99112.03;8291139;28;19932;-77
2022/09/23 16:45:44;;;;;;;;;;;;;;;16.41;62.28;99110.22;8303547;28;19929;-77
2022/09/23 16:49:46;;;;;;;;;;;;;;;16.26;63.08;99113.34;8294148;28;19921;-77
2022/09/23 16:53:48;;;;;;;;;;;;;;;16.12;64.61;99112.91;8288193;28;19925;-77
2022/09/23 16:57:50;;;;;;;;;;;;;;;15.96;64.28;99113.38;8287827;28;19976;-77
2022/09/23 17:06:13;;;;;;;;;;;;;;;15.48;64.85;99128.78;8283906;28;19925;-77
2022/09/23 17:10:17;;;;;;;;;;;;;;;15.37;66.79;99117.72;8307076;28;19933;-77
2022/09/23 17:14:27;;;;;;;;;;;;;;;15.19;66.85;99119.09;8300895;28;19935;-77
2022/09/23 17:18:29;;;;;;;;;;;;;;;15.01;66.57;99115.22;8269574;28;19929;-77
2022/09/23 17:22:36;;;;;;;;;;;;;;;14.80;67.36;99118.41;8303129;28;19929;-77
2022/09/23 17:26:38;;;;;;;;;;;;;;;14.67;67.87;99122.22;8292021;28;19933;-77
2022/09/23 17:30:39;;;;;;;;;;;;;;;14.48;67.08;99129.66;8304693;28;19925;-77
2022/09/23 17:34:42;;;;;;;;;;;;;;;14.35;68.05;99128.22;8305973;28;19930;-77
2022/09/23 17:38:44;;;;;;;;;;;;;;;14.24;69.10;99127.63;8286025;28;19929;-77
2022/09/23 17:42:46;;;;;;;;;;;;;;;14.15;69.46;99121.69;8289260;28;19983;-76
2022/09/23 17:46:54;;;;;;;;;;;;;;;14.07;70.38;99113.19;8267381;28;19925;-76
2022/09/23 17:50:56;;;;;;;;;;;;;;;13.99;70.44;99114.25;8286816;28;19986;-76
2022/09/23 17:54:57;;;;;;;;;;;;;;;13.87;70.42;99118.88;8281610;28;19933;-76
2022/09/23 17:59:00;;;;;;;;;;;;;;;13.79;70.79;99112.09;8283760;28;19964;-76
2022/09/23 18:03:01;;;;;;;;;;;;;;;13.64;71.60;99110.66;8305210;28;20416;-75
2022/09/23 18:07:03;;;;;;;;;;;;;;;13.52;72.48;99118.78;8302665;28;20400;-75
2022/09/23 18:11:18;;;;;;;;;;;;;;;13.41;73.04;99120.72;8284814;28;19925;-76
2022/09/23 18:15:19;;;;;;;;;;;;;;;13.30;73.15;99111.38;8289302;28;19929;-76
2022/09/23 18:19:22;;;;;;;;;;;;;;;13.23;73.92;99112.38;8284313;28;19929;-75
2022/09/23 18:23:23;;;;;;;;;;;;;;;13.11;75.19;99112.59;8291127;28;19995;-75
2022/09/23 18:27:26;;;;;;;;;;;;;;;13.01;75.33;99109.28;8283173;28;19965;-76
2022/09/23 18:31:33;;;;;;;;;;;;;;;12.96;75.53;99112.88;8298480;28;19925;-76
2022/09/23 18:35:34;;;;;;;;;;;;;;;12.93;75.91;99110.34;8299314;28;20279;-76
2022/09/23 18:39:35;;;;;;;;;;;;;;;12.86;76.15;99104.38;8301412;28;19961;-75
2022/09/23 18:43:37;;;;;;;;;;;;;;;12.75;76.37;99121.06;8287661;28;20314;-75
2022/09/23 18:52:11;;;;;;;;;;;;;;;12.59;77.39;99120.50;8284034;28;20396;-76
2022/09/23 18:56:13;;;;;;;;;;;;;;;12.47;77.41;99131.97;8286665;28;20019;-75
2022/09/23 19:00:15;;;;;;;;;;;;;;;12.39;78.19;99115.63;8288108;28;20340;-76
2022/09/23 19:04:18;;;;;;;;;;;;;;;12.40;77.97;99122.53;8280689;28;19925;-75
2022/09/23 19:08:19;;;;;;;;;;;;;;;12.36;77.33;99113.91;8279805;28;19952;-75
2022/09/23 19:12:21;;;;;;;;;;;;;;;12.31;78.02;99120.06;8281419;28;19936;-75
2022/09/23 19:16:32;;;;;;;;;;;;;;;12.18;77.82;99116.78;8283089;28;19991;-75
2022/09/23 19:20:52;;;;;;;;;;;;;;;12.10;78.11;99119.53;8284083;28;20016;-74
2022/09/23 19:24:53;;;;;;;;;;;;;;;12.04;78.71;99127.44;8279415;28;19929;-74
2022/09/23 19:28:56;;;;;;;;;;;;;;;12.00;78.66;99117.94;8283179;28;19975;-75
2022/09/23 19:33:05;;;;;;;;;;;;;;;11.99;79.08;99115.34;8284251;28;20223;-74
2022/09/23 19:37:06;;;;;;;;;;;;;;;11.99;78.83;99110.16;8276128;28;20458;-74
2022/09/23 19:41:10;;;;;;;;;;;;;;;11.95;78.44;99108.47;8280436;28;19991;-75
2022/09/23 19:45:11;;;;;;;;;;;;;;;11.91;79.23;99112.88;8279352;28;20638;-75
2022/09/23 19:49:12;;;;;;;;;;;;;;;11.89;79.27;99108.56;8280349;28;20496;-74
2022/09/23 19:53:14;;;;;;;;;;;;;;;11.85;79.12;99110.38;8294670;28;20408;-74
2022/09/23 19:57:32;;;;;;;;;;;;;;;11.88;80.13;99104.25;8293572;28;19929;-74
2022/09/23 20:01:34;;;;;;;;;;;;;;;11.89;80.62;99103.38;8262884;28;19925;-74
2022/09/23 20:05:35;;;;;;;;;;;;;;;11.89;80.79;99105.97;8302529;28;19925;-74
2022/09/23 20:09:37;;;;;;;;;;;;;;;11.88;81.01;99104.25;8296764;28;20028;-73
2022/09/23 20:13:39;;;;;;;;;;;;;;;11.87;81.40;99098.19;8296436;28;20687;-75
2022/09/23 20:17:47;;;;;;;;;;;;;;;11.77;81.81;99089.59;8269942;28;19967;-75
2022/09/23 20:30:37;;;;;;;;;;;;;;;11.71;81.66;99092.31;8272634;28;19933;-76
2022/09/23 20:34:48;;;;;;;;;;;;;;;11.68;81.92;99094.09;8296840;28;20286;-76
2022/09/23 20:38:58;;;;;;;;;;;;;;;11.63;82.08;99088.94;8294881;28;19925;-76
2022/09/23 20:43:03;;;;;;;;;;;;;;;11.61;82.78;99088.09;8280390;28;19925;-76
2022/09/23 20:47:12;;;;;;;;;;;;;;;11.59;82.69;99087.25;8293838;28;20606;-76
2022/09/23 20:51:14;;;;;;;;;;;;;;;11.57;83.25;99082.97;8265351;28;19936;-76
2022/09/23 20:55:16;;;;;;;;;;;;;;;11.60;82.64;99081.19;8300838;28;19925;-76
2022/09/23 20:59:18;;;;;;;;;;;;;;;11.60;82.42;99077.72;8284472;28;19925;-76
2022/09/23 21:03:19;;;;;;;;;;;;;;;11.58;82.64;99074.28;8287002;28;19925;-76
2022/09/23 21:07:22;;;;;;;;;;;;;;;11.52;82.76;99075.25;8287734;28;20633;-76
2022/09/23 21:11:24;;;;;;;;;;;;;;;11.49;82.77;99073.53;8290436;28;19925;-76
2022/09/23 21:15:26;;;;;;;;;;;;;;;11.43;83.01;99071.00;8280763;28;19926;-76
2022/09/23 21:19:28;;;;;;;;;;;;;;;11.46;83.63;99073.56;8286882;28;19925;-76
2022/09/23 21:23:31;;;;;;;;;;;;;;;11.42;84.25;99073.63;8284141;28;19929;-76
2022/09/23 21:27:35;;;;;;;;;;;;;;;11.37;84.25;99080.63;8301953;28;19983;-76
2022/09/23 21:31:44;;;;;;;;;;;;;;;11.35;84.19;99067.66;8299526;28;19925;-76
2022/09/23 21:35:47;;;;;;;;;;;;;;;11.31;84.46;99073.78;8299095;28;19991;-76
2022/09/23 21:44:08;;;;;;;;;;;;;;;11.19;84.21;99073.91;8287133;28;19929;-76
2022/09/23 21:48:10;;;;;;;;;;;;;;;11.06;84.21;99065.41;8298710;28;19929;-75
2022/09/23 21:52:11;;;;;;;;;;;;;;;10.95;83.93;99067.28;8286974;28;20031;-76
2022/09/23 21:56:14;;;;;;;;;;;;;;;10.79;83.99;99082.16;8284484;28;19948;-76
2022/09/23 22:00:22;;;;;;;;;;;;;;;10.68;84.88;99089.19;8285074;28;19940;-76